Viking Sea — LAWP7 — position and weather

sailwx.info

Track history (hours):
 
Tides and Currents Weather Stations Pressure Air Temp Water Temp Dewpoint Dewpoint Depression Visibility Wind Speed Wind Dir Waves Ship Positions

Viking Sea

Last reported at 2019-Oct-10 02:44 UTC. Time now 2019-Oct-19 00:19 UTC.
Position N 39°42' W 073°44'.
Warning: this ship's position is 8 days out of date.

Length 228 m; draft 6.8 m.

Type: Ship. MMSI: 258215000.

Date/timePositionNaut miles runAvg speedWind from/ knotsBaromVisibWave heightAir tempDewpointWater temp
2019-Oct-10 02:44N 39°42' W 073°44'415.4
2019-Oct-10 02:28N 39°45' W 073°48'817.3
2019-Oct-10 02:00N 39°53' W 073°49'917.7
2019-Oct-10 01:30N 40°02' W 073°49'2016.7
2019-Oct-10 00:17N 40°22' W 073°49'514.1
2019-Oct-09 23:55N 40°27' W 073°49'615.6
2019-Oct-09 23:30N 40°30' W 073°57'815.1
2019-Oct-09 23:00N 40°36' W 074°03'713.5
2019-Oct-09 22:31N 40°43' W 074°02'4 7.2
2019-Oct-09 22:00N 40°46' W 073°60'0 0.2
2019-Oct-09 21:26N 40°46' W 073°60'0 0.0
2019-Oct-09 20:53N 40°46' W 073°60'0 0.0
2019-Oct-09 20:29N 40°46' W 073°60'0 0.0
2019-Oct-09 19:59N 40°46' W 073°60'0 0.0
2019-Oct-09 19:26N 40°46' W 073°60'0 0.0
2019-Oct-09 18:50N 40°46' W 073°60'0 0.0
2019-Oct-09 18:26N 40°46' W 073°60'0 0.0
2019-Oct-09 17:53N 40°46' W 073°60'0 0.0
2019-Oct-09 17:26N 40°46' W 073°60'0 0.0
2019-Oct-09 16:50N 40°46' W 073°60'0 0.0
2019-Oct-09 16:20N 40°46' W 073°60'0 0.0
2019-Oct-09 15:50N 40°46' W 073°60'0 0.0
2019-Oct-09 15:26N 40°46' W 073°60'0 0.0
2019-Oct-09 14:41N 40°46' W 073°60'0 0.0
2019-Oct-09 14:26N 40°46' W 073°60'0 0.0
2019-Oct-09 13:56N 40°46' W 073°60'0 0.0
2019-Oct-09 13:26N 40°46' W 073°60'0 0.0
2019-Oct-09 12:59N 40°46' W 073°60'0 0.0
2019-Oct-09 12:20N 40°46' W 073°60'0 0.0
2019-Oct-09 11:59N 40°46' W 073°60'0 0.0
2019-Oct-09 11:29N 40°46' W 073°60'0 0.0
2019-Oct-09 10:59N 40°46' W 073°60'0 0.0
2019-Oct-09 10:23N 40°46' W 073°60'0 0.0
2019-Oct-09 09:59N 40°46' W 073°60'0 0.0
2019-Oct-09 09:29N 40°46' W 073°60'0 0.0
2019-Oct-09 08:59N 40°46' W 073°60'0 0.0
2019-Oct-09 08:29N 40°46' W 073°60'0 0.0
2019-Oct-09 07:53N 40°46' W 073°60'0 0.0
2019-Oct-09 07:11N 40°46' W 073°60'0 0.0
2019-Oct-09 06:59N 40°46' W 073°60'0 0.0
2019-Oct-09 06:23N 40°46' W 073°60'0 0.0
2019-Oct-09 05:47N 40°46' W 073°60'0 0.0
2019-Oct-09 04:59N 40°46' W 073°60'0 0.0
2019-Oct-09 04:29N 40°46' W 073°60'0 0.0
2019-Oct-09 03:59N 40°46' W 073°60'0 0.0
2019-Oct-09 03:29N 40°46' W 073°60'0 0.0
2019-Oct-09 02:59N 40°46' W 073°60'0 0.0
2019-Oct-08 09:44N 40°46' W 073°60'0 0.0
2019-Oct-08 09:14N 40°46' W 073°60'0 0.0
2019-Oct-08 08:44N 40°46' W 073°60'0 0.0
2019-Oct-08 06:56N 40°46' W 073°60'0 0.0
2019-Oct-07 15:38N 40°46' W 073°60'0 0.7
2019-Oct-07 15:28N 40°46' W 074°00'1 2.8
2019-Oct-07 15:01N 40°45' W 074°01'4 8.7
2019-Oct-07 14:30N 40°41' W 074°02'612.5
2019-Oct-07 14:00N 40°35' W 074°02'713.8
2019-Oct-07 13:30N 40°30' W 073°56'713.7
2019-Oct-07 13:00N 40°27' W 073°47'612.8
2019-Oct-07 12:30N 40°27' W 073°39'611.8
2019-Oct-07 12:00N 40°28' W 073°31'7411.7
2019-Oct-07 05:41N 40°47' W 071°57'311.9
2019-Oct-07 05:28N 40°48' W 071°54'4211.4
2019-Oct-07 01:47N 41°18' W 071°14'411.7
2019-Oct-07 01:28N 41°21' W 071°13'710.8
2019-Oct-07 00:47N 41°25' W 071°05'415.0
2019-Oct-07 00:30N 41°27' W 071°00'815.5
2019-Oct-07 00:00N 41°30' W 070°51'714.9
2019-Oct-06 23:30N 41°35' W 070°43'814.3
2019-Oct-06 22:56N 41°43' W 070°39'911.2
2019-Oct-06 22:07N 41°47' W 070°28'3414.0
2019-Oct-06 19:40N 42°19' W 070°45'215.9
2019-Oct-06 19:31N 42°21' W 070°47'612.3
2019-Oct-06 19:00N 42°22' W 070°55'4 8.5
2019-Oct-06 18:30N 42°21' W 071°01'0 0.0
2019-Oct-05 10:52N 42°21' W 071°01'1 2.6
2019-Oct-05 10:30N 42°20' W 071°00'5 9.4
2019-Oct-05 10:00N 42°22' W 070°55'610.9
2019-Oct-05 09:27N 42°25' W 070°47'6 7.9
2019-Oct-05 08:39N 42°29' W 070°41'5 7.9
2019-Oct-05 08:02N 42°33' W 070°36'0 8.2
2019-Oct-05 08:00N 42°33' W 070°36'7 8.0
2019-Oct-05 07:11N 42°37' W 070°29'2 8.3
2019-Oct-05 06:57N 42°39' W 070°27'5 8.1
2019-Oct-05 06:22N 42°42' W 070°22'  
Track history (hours):
 
Tides and Currents Weather Stations Pressure Air Temp Water Temp Dewpoint Dewpoint Depression Visibility Wind Speed Wind Dir Waves Ship Positions

Viking Sea

Last reported at 2019-Oct-10 02:44 UTC. Time now 2019-Oct-19 00:19 UTC.
Position N 39°42' W 073°44'.
Warning: this ship's position is 8 days out of date.

Length 228 m; draft 6.8 m.

Type: Ship. MMSI: 258215000.

Date/timePositionNaut miles runAvg speedWind from/ knotsBaromVisibWave heightAir tempDewpointWater temp
2019-Oct-10 02:44N 39°42' W 073°44'415.4
2019-Oct-10 02:28N 39°45' W 073°48'817.3
2019-Oct-10 02:00N 39°53' W 073°49'917.7
2019-Oct-10 01:30N 40°02' W 073°49'2016.7
2019-Oct-10 00:17N 40°22' W 073°49'514.1
2019-Oct-09 23:55N 40°27' W 073°49'615.6
2019-Oct-09 23:30N 40°30' W 073°57'815.1
2019-Oct-09 23:00N 40°36' W 074°03'713.5
2019-Oct-09 22:31N 40°43' W 074°02'4 7.2
2019-Oct-09 22:00N 40°46' W 073°60'0 0.2
2019-Oct-09 21:26N 40°46' W 073°60'0 0.0
2019-Oct-09 20:53N 40°46' W 073°60'0 0.0
2019-Oct-09 20:29N 40°46' W 073°60'0 0.0
2019-Oct-09 19:59N 40°46' W 073°60'0 0.0
2019-Oct-09 19:26N 40°46' W 073°60'0 0.0
2019-Oct-09 18:50N 40°46' W 073°60'0 0.0
2019-Oct-09 18:26N 40°46' W 073°60'0 0.0
2019-Oct-09 17:53N 40°46' W 073°60'0 0.0
2019-Oct-09 17:26N 40°46' W 073°60'0 0.0
2019-Oct-09 16:50N 40°46' W 073°60'0 0.0
2019-Oct-09 16:20N 40°46' W 073°60'0 0.0
2019-Oct-09 15:50N 40°46' W 073°60'0 0.0
2019-Oct-09 15:26N 40°46' W 073°60'0 0.0
2019-Oct-09 14:41N 40°46' W 073°60'0 0.0
2019-Oct-09 14:26N 40°46' W 073°60'0 0.0
2019-Oct-09 13:56N 40°46' W 073°60'0 0.0
2019-Oct-09 13:26N 40°46' W 073°60'0 0.0
2019-Oct-09 12:59N 40°46' W 073°60'0 0.0
2019-Oct-09 12:20N 40°46' W 073°60'0 0.0
2019-Oct-09 11:59N 40°46' W 073°60'0 0.0
2019-Oct-09 11:29N 40°46' W 073°60'0 0.0
2019-Oct-09 10:59N 40°46' W 073°60'0 0.0
2019-Oct-09 10:23N 40°46' W 073°60'0 0.0
2019-Oct-09 09:59N 40°46' W 073°60'0 0.0
2019-Oct-09 09:29N 40°46' W 073°60'0 0.0
2019-Oct-09 08:59N 40°46' W 073°60'0 0.0
2019-Oct-09 08:29N 40°46' W 073°60'0 0.0
2019-Oct-09 07:53N 40°46' W 073°60'0 0.0
2019-Oct-09 07:11N 40°46' W 073°60'0 0.0
2019-Oct-09 06:59N 40°46' W 073°60'0 0.0
2019-Oct-09 06:23N 40°46' W 073°60'0 0.0
2019-Oct-09 05:47N 40°46' W 073°60'0 0.0
2019-Oct-09 04:59N 40°46' W 073°60'0 0.0
2019-Oct-09 04:29N 40°46' W 073°60'0 0.0
2019-Oct-09 03:59N 40°46' W 073°60'0 0.0
2019-Oct-09 03:29N 40°46' W 073°60'0 0.0
2019-Oct-09 02:59N 40°46' W 073°60'0 0.0
2019-Oct-08 09:44N 40°46' W 073°60'0 0.0
2019-Oct-08 09:14N 40°46' W 073°60'0 0.0
2019-Oct-08 08:44N 40°46' W 073°60'0 0.0
2019-Oct-08 06:56N 40°46' W 073°60'0 0.0
2019-Oct-07 15:38N 40°46' W 073°60'0 0.7
2019-Oct-07 15:28N 40°46' W 074°00'1 2.8
2019-Oct-07 15:01N 40°45' W 074°01'4 8.7
2019-Oct-07 14:30N 40°41' W 074°02'612.5
2019-Oct-07 14:00N 40°35' W 074°02'713.8
2019-Oct-07 13:30N 40°30' W 073°56'713.7
2019-Oct-07 13:00N 40°27' W 073°47'612.8
2019-Oct-07 12:30N 40°27' W 073°39'611.8
2019-Oct-07 12:00N 40°28' W 073°31'7411.7
2019-Oct-07 05:41N 40°47' W 071°57'311.9
2019-Oct-07 05:28N 40°48' W 071°54'4211.4
2019-Oct-07 01:47N 41°18' W 071°14'411.7
2019-Oct-07 01:28N 41°21' W 071°13'710.8
2019-Oct-07 00:47N 41°25' W 071°05'415.0
2019-Oct-07 00:30N 41°27' W 071°00'815.5
2019-Oct-07 00:00N 41°30' W 070°51'714.9
2019-Oct-06 23:30N 41°35' W 070°43'814.3
2019-Oct-06 22:56N 41°43' W 070°39'911.2
2019-Oct-06 22:07N 41°47' W 070°28'3414.0
2019-Oct-06 19:40N 42°19' W 070°45'215.9
2019-Oct-06 19:31N 42°21' W 070°47'612.3
2019-Oct-06 19:00N 42°22' W 070°55'4 8.5
2019-Oct-06 18:30N 42°21' W 071°01'0 0.0
2019-Oct-05 10:52N 42°21' W 071°01'1 2.6
2019-Oct-05 10:30N 42°20' W 071°00'5 9.4
2019-Oct-05 10:00N 42°22' W 070°55'610.9
2019-Oct-05 09:27N 42°25' W 070°47'6 7.9
2019-Oct-05 08:39N 42°29' W 070°41'5 7.9
2019-Oct-05 08:02N 42°33' W 070°36'0 8.2
2019-Oct-05 08:00N 42°33' W 070°36'7 8.0
2019-Oct-05 07:11N 42°37' W 070°29'2 8.3
2019-Oct-05 06:57N 42°39' W 070°27'5 8.1
2019-Oct-05 06:22N 42°42' W 070°22'  

Dump ship's entire track history